createdAt,value
2022-11-28T00:01:07.307Z,101158.88
2022-11-28T00:03:33.838Z,101158.75
2022-11-28T00:06:05.105Z,101159.84
2022-11-28T00:08:32.524Z,101163.75
2022-11-28T00:10:59.020Z,101157.38
2022-11-28T00:13:25.457Z,101141.34
2022-11-28T00:15:59.290Z,101142.50
2022-11-28T00:18:25.797Z,101138.84
2022-11-28T00:20:52.276Z,101148.44
2022-11-28T00:23:18.710Z,101136.66
2022-11-28T00:25:45.089Z,101127.78
2022-11-28T00:28:11.547Z,101111.88
2022-11-28T00:30:39.295Z,101114.41
2022-11-28T00:33:05.712Z,101111.47
2022-11-28T00:35:32.094Z,101124.31
2022-11-28T00:37:58.632Z,101135.44
2022-11-28T00:40:25.125Z,101138.31
2022-11-28T00:42:51.628Z,101118.19
2022-11-28T00:45:18.061Z,101122.34
2022-11-28T00:47:44.564Z,101111.31
2022-11-28T00:50:11.131Z,101106.34
2022-11-28T00:52:37.542Z,101101.50
2022-11-28T00:55:04.256Z,101091.41
2022-11-28T00:57:30.798Z,101094.47
2022-11-28T00:59:57.269Z,101087.44
2022-11-28T01:02:23.947Z,101077.13
2022-11-28T01:04:50.347Z,101074.72
2022-11-28T01:07:16.992Z,101070.50
2022-11-28T01:09:43.803Z,101072.91
2022-11-28T01:12:10.204Z,101061.50
2022-11-28T01:14:36.594Z,101062.59
2022-11-28T01:17:03.143Z,101066.41
2022-11-28T01:19:29.691Z,101077.06
2022-11-28T01:21:56.123Z,101084.56
2022-11-28T01:24:22.585Z,101080.88
2022-11-28T01:26:49.161Z,101062.56
2022-11-28T01:29:16.394Z,101062.50
2022-11-28T01:31:42.849Z,101044.06
2022-11-28T01:34:09.698Z,101049.31
2022-11-28T01:36:36.338Z,101054.25
2022-11-28T01:39:02.808Z,101048.00
2022-11-28T01:41:29.287Z,101044.31
2022-11-28T01:44:04.684Z,101053.91
2022-11-28T01:46:31.930Z,101047.22
2022-11-28T01:49:03.554Z,101053.19
2022-11-28T01:51:30.387Z,101037.88
2022-11-28T01:53:56.900Z,101035.78
2022-11-28T01:56:26.494Z,101028.22
2022-11-28T01:58:57.135Z,101027.41
2022-11-28T02:01:24.618Z,101025.34
2022-11-28T02:03:51.438Z,101015.81
2022-11-28T02:06:21.071Z,101020.66
2022-11-28T02:08:51.383Z,101007.88
2022-11-28T02:11:55.487Z,101006.66
2022-11-28T02:14:59.508Z,101005.06
2022-11-28T02:17:51.356Z,101002.31
2022-11-28T02:20:25.036Z,101006.22
2022-11-28T02:23:26.788Z,100997.00
2022-11-28T02:26:03.165Z,101000.97
2022-11-28T02:28:29.715Z,100998.31
2022-11-28T02:31:20.444Z,100988.00
2022-11-28T02:33:51.458Z,100987.31
2022-11-28T02:36:17.788Z,100989.38
2022-11-28T02:39:02.717Z,100981.44
2022-11-28T02:41:32.065Z,100996.84
2022-11-28T02:44:11.717Z,100987.84
2022-11-28T02:46:46.891Z,100973.91
2022-11-28T02:49:38.107Z,100980.97
2022-11-28T02:52:15.519Z,100984.94
2022-11-28T02:54:43.030Z,100984.84
2022-11-28T02:57:09.622Z,100984.47
2022-11-28T02:59:39.108Z,100979.31
2022-11-28T03:02:13.273Z,100980.03
2022-11-28T03:04:43.132Z,100969.44
2022-11-28T03:07:44.554Z,100973.66
2022-11-28T03:10:25.362Z,100982.28
2022-11-28T03:13:29.628Z,100980.22
2022-11-28T03:16:31.423Z,100968.84
2022-11-28T03:19:04.861Z,100973.59
2022-11-28T03:22:10.736Z,100978.22
2022-11-28T03:24:44.975Z,100968.16
2022-11-28T03:27:19.791Z,100967.03
2022-11-28T03:29:50.417Z,100965.44
2022-11-28T03:32:20.947Z,100966.97
2022-11-28T03:34:49.931Z,100963.44
2022-11-28T03:37:46.098Z,100960.50
2022-11-28T03:40:20.547Z,100967.38
2022-11-28T03:42:52.518Z,100965.06
2022-11-28T03:45:22.551Z,100965.22
2022-11-28T03:47:54.658Z,100964.47
2022-11-28T03:50:26.908Z,100971.88
2022-11-28T03:53:06.440Z,100968.88
2022-11-28T03:55:44.277Z,100969.25
2022-11-28T03:58:24.578Z,100974.16
2022-11-28T04:01:03.836Z,100979.78
2022-11-28T04:03:52.717Z,100967.81
2022-11-28T04:06:26.753Z,100967.16
2022-11-28T04:09:03.809Z,100974.53
2022-11-28T04:11:51.396Z,100973.69
2022-11-28T04:14:29.432Z,100969.91
2022-11-28T04:17:01.018Z,100962.47
2022-11-28T04:19:53.782Z,100981.34
2022-11-28T04:22:28.811Z,100969.75
2022-11-28T04:24:58.733Z,100967.84
2022-11-28T04:27:30.044Z,100970.69
2022-11-28T04:29:59.628Z,100980.31
2022-11-28T04:32:26.861Z,100979.09
2022-11-28T04:34:57.291Z,100977.63
2022-11-28T04:37:25.502Z,100976.25
2022-11-28T04:39:52.751Z,100969.31
2022-11-28T04:42:26.793Z,100965.34
2022-11-28T04:44:57.662Z,100963.03
2022-11-28T04:47:25.112Z,100959.94
2022-11-28T04:49:52.335Z,100968.72
2022-11-28T04:52:31.998Z,100955.59
2022-11-28T04:55:08.557Z,100962.34
2022-11-28T04:57:44.235Z,100958.72
2022-11-28T05:00:13.831Z,100948.69
2022-11-28T05:02:41.652Z,100945.16
2022-11-28T05:05:14.372Z,100953.16
2022-11-28T05:07:40.861Z,100953.22
2022-11-28T05:10:07.932Z,100956.09
2022-11-28T05:12:34.365Z,100961.06
2022-11-28T05:15:00.937Z,100963.56
2022-11-28T05:17:27.398Z,100957.91
2022-11-28T05:19:53.856Z,100956.88
2022-11-28T05:22:20.302Z,100953.97
2022-11-28T05:24:46.898Z,100963.72
2022-11-28T05:27:13.505Z,100970.56
2022-11-28T05:29:46.897Z,100966.97
2022-11-28T05:32:15.936Z,100959.19
2022-11-28T05:34:42.731Z,100957.50
2022-11-28T05:37:09.295Z,100957.94
2022-11-28T05:39:35.829Z,100953.16
2022-11-28T05:42:02.222Z,100964.84
2022-11-28T05:44:28.595Z,100968.56
2022-11-28T05:46:55.078Z,100971.53
2022-11-28T05:49:21.704Z,100977.44
2022-11-28T05:51:48.756Z,100980.63
2022-11-28T05:54:15.343Z,100978.50
2022-11-28T05:56:42.597Z,100972.38
2022-11-28T05:59:09.185Z,100976.22
2022-11-28T06:01:35.588Z,100977.75
2022-11-28T06:04:02.123Z,100981.63
2022-11-28T06:06:31.165Z,100982.41
2022-11-28T06:08:57.963Z,100979.16
2022-11-28T06:11:26.076Z,100982.56
2022-11-28T06:13:52.975Z,100982.50
2022-11-28T06:16:27.747Z,100985.44
2022-11-28T06:18:56.249Z,100971.94
2022-11-28T06:21:23.386Z,100976.81
2022-11-28T06:23:50.100Z,100977.94
2022-11-28T06:26:19.363Z,100978.59
2022-11-28T06:28:45.863Z,100979.63
2022-11-28T06:31:13.989Z,100987.72
2022-11-28T06:33:41.169Z,100984.38
2022-11-28T06:36:08.741Z,100976.25
2022-11-28T06:38:35.226Z,100980.13
2022-11-28T06:41:07.045Z,100995.38
2022-11-28T06:43:33.943Z,100994.69
2022-11-28T06:46:00.673Z,100992.88
2022-11-28T06:48:27.876Z,100998.88
2022-11-28T06:50:54.529Z,100996.63
2022-11-28T06:53:21.882Z,100995.59
2022-11-28T06:55:48.319Z,100994.53
2022-11-28T06:58:14.754Z,100988.47
2022-11-28T07:00:41.302Z,100996.91
2022-11-28T07:03:07.924Z,101003.41
2022-11-28T07:05:34.458Z,101000.63
2022-11-28T07:08:00.984Z,100994.50
2022-11-28T07:10:28.138Z,101003.97
2022-11-28T07:13:04.927Z,100996.28
2022-11-28T07:15:32.045Z,100997.34
2022-11-28T07:17:58.464Z,101000.63
2022-11-28T07:20:24.995Z,101000.53
2022-11-28T07:22:51.460Z,101008.09
2022-11-28T07:25:18.079Z,101018.53
2022-11-28T07:27:44.549Z,101004.66
2022-11-28T07:30:11.231Z,101010.78
2022-11-28T07:32:41.108Z,101015.59
2022-11-28T07:35:08.983Z,101014.47
2022-11-28T07:37:35.720Z,101014.69
2022-11-28T07:40:02.141Z,101011.56
2022-11-28T07:42:28.593Z,101013.88
2022-11-28T07:44:55.047Z,101020.34
2022-11-28T07:47:21.870Z,101016.63
2022-11-28T07:49:48.277Z,101020.78
2022-11-28T07:52:14.714Z,101013.88
2022-11-28T07:54:41.356Z,101024.94
2022-11-28T07:57:11.895Z,101026.44
2022-11-28T07:59:39.319Z,101028.44
2022-11-28T08:02:05.824Z,101029.84
2022-11-28T08:04:32.387Z,101031.38
2022-11-28T08:06:58.863Z,101031.38
2022-11-28T08:09:25.372Z,101031.75
2022-11-28T08:11:52.481Z,101031.13
2022-11-28T08:14:19.909Z,101029.13
2022-11-28T08:16:46.516Z,101024.34
2022-11-28T08:19:13.474Z,101031.72
2022-11-28T08:21:39.932Z,101031.72
2022-11-28T08:24:07.983Z,101023.53
2022-11-28T08:26:35.518Z,101029.78
2022-11-28T08:29:02.649Z,101034.66
2022-11-28T08:31:31.467Z,101033.34
2022-11-28T08:34:00.055Z,101031.59
2022-11-28T08:36:28.990Z,101031.53
2022-11-28T08:39:22.272Z,101029.50
2022-11-28T08:41:42.771Z,101030.66
2022-11-28T08:44:09.220Z,101028.75
2022-11-28T08:46:36.640Z,101033.59
2022-11-28T08:49:04.592Z,101032.63
2022-11-28T08:51:31.776Z,101025.09
2022-11-28T08:53:59.753Z,101034.06
2022-11-28T08:56:27.021Z,101035.88
2022-11-28T08:58:54.080Z,101035.47
2022-11-28T09:01:23.191Z,101032.53
2022-11-28T09:03:51.090Z,101031.03
2022-11-28T09:06:18.301Z,101026.38
2022-11-28T09:08:45.376Z,101029.41
2022-11-28T09:11:14.619Z,101027.22
2022-11-28T09:13:41.500Z,101030.28
2022-11-28T09:16:08.468Z,101035.19
2022-11-28T09:18:34.938Z,101030.59
2022-11-28T09:21:04.615Z,101028.28
2022-11-28T09:23:31.106Z,101028.09
2022-11-28T09:25:57.679Z,101024.44
2022-11-28T09:28:24.647Z,101034.06
2022-11-28T09:30:59.860Z,101027.00
2022-11-28T09:33:26.448Z,101038.00
2022-11-28T09:35:52.992Z,101030.78
2022-11-28T09:38:19.648Z,101033.50
2022-11-28T09:40:46.137Z,101027.84
2022-11-28T09:43:18.708Z,101033.88
2022-11-28T09:45:45.349Z,101027.91
2022-11-28T09:48:24.691Z,101030.69
2022-11-28T09:50:54.102Z,101035.31
2022-11-28T09:53:28.862Z,101032.16
2022-11-28T09:56:24.726Z,101026.47
2022-11-28T09:58:59.222Z,101024.00
2022-11-28T10:01:36.959Z,101024.84
2022-11-28T10:04:13.501Z,101020.41
2022-11-28T10:06:54.378Z,101019.69
2022-11-28T10:10:05.030Z,101019.31
2022-11-28T10:13:04.877Z,101021.69
2022-11-28T10:15:53.739Z,101024.50
2022-11-28T10:18:29.437Z,101023.09
2022-11-28T10:21:01.262Z,101016.84
2022-11-28T10:23:35.582Z,101018.50
2022-11-28T10:26:07.996Z,101022.28
2022-11-28T10:28:39.098Z,101019.81
2022-11-28T10:31:33.884Z,101023.22
2022-11-28T10:34:30.343Z,101014.66
2022-11-28T10:37:04.010Z,101021.06
2022-11-28T10:39:30.733Z,101024.97
2022-11-28T10:42:13.802Z,101018.13
2022-11-28T10:44:46.251Z,101019.81
2022-11-28T10:47:40.047Z,101024.28
2022-11-28T10:50:18.915Z,101013.72
2022-11-28T10:52:51.708Z,101024.97
2022-11-28T10:55:42.354Z,101022.38
2022-11-28T10:58:15.845Z,101017.09
2022-11-28T11:00:45.468Z,101021.03
2022-11-28T11:03:13.965Z,101017.91
2022-11-28T11:05:40.446Z,101009.09
2022-11-28T11:08:21.036Z,101020.94
2022-11-28T11:10:51.537Z,101024.13
2022-11-28T11:13:23.915Z,101017.63
2022-11-28T11:16:22.960Z,101012.59
2022-11-28T11:18:49.362Z,101008.41
2022-11-28T11:21:21.369Z,101016.56
2022-11-28T11:23:48.992Z,101017.31
2022-11-28T11:26:39.177Z,101019.75
2022-11-28T11:29:05.847Z,101017.81
2022-11-28T11:31:42.342Z,101013.94
2022-11-28T11:34:20.203Z,101013.81
2022-11-28T11:36:47.335Z,100999.69
2022-11-28T11:39:13.708Z,101004.84
2022-11-28T11:41:42.247Z,101009.16
2022-11-28T11:44:14.541Z,101016.41
2022-11-28T11:46:58.092Z,101004.56
2022-11-28T11:49:37.734Z,101004.47
2022-11-28T11:52:06.625Z,101015.41
2022-11-28T11:54:33.450Z,101015.53
2022-11-28T11:57:25.032Z,101012.97
2022-11-28T11:59:50.661Z,101013.19
2022-11-28T12:02:27.972Z,101015.41
2022-11-28T12:05:16.187Z,101020.31
2022-11-28T12:08:02.913Z,101023.47
2022-11-28T12:10:39.667Z,101025.34
2022-11-28T12:13:06.100Z,101023.16
2022-11-28T12:15:44.688Z,101014.28
2022-11-28T12:18:27.537Z,101016.16
2022-11-28T12:21:13.874Z,101012.19
2022-11-28T12:23:57.460Z,101012.81
2022-11-28T12:26:32.787Z,101017.41
2022-11-28T12:32:25.849Z,101013.13
2022-11-28T12:35:17.457Z,101008.97
2022-11-28T12:38:09.810Z,101015.69
2022-11-28T12:40:51.925Z,101003.28
2022-11-28T12:43:42.620Z,101004.66
2022-11-28T12:46:30.518Z,101002.25
2022-11-28T12:49:19.137Z,101005.84
2022-11-28T12:52:41.332Z,101008.22
2022-11-28T12:55:16.774Z,101004.31
2022-11-28T12:57:49.244Z,101003.19
2022-11-28T13:00:21.331Z,100997.84
2022-11-28T13:03:15.904Z,101003.00
2022-11-28T13:05:57.753Z,100996.44
2022-11-28T13:08:52.135Z,101001.50
2022-11-28T13:11:46.089Z,101003.31
2022-11-28T13:14:31.217Z,101002.25
2022-11-28T13:17:17.434Z,101008.72
2022-11-28T13:19:53.882Z,101011.59
2022-11-28T13:22:24.186Z,101012.47
2022-11-28T13:24:53.700Z,101013.94
2022-11-28T13:27:42.312Z,101013.31
2022-11-28T13:30:29.269Z,101011.41
2022-11-28T13:32:58.669Z,101015.31
2022-11-28T13:35:25.338Z,101013.59
2022-11-28T13:40:47.164Z,101012.22
2022-11-28T13:43:27.906Z,101019.84
2022-11-28T13:45:54.960Z,101014.94
2022-11-28T13:48:57.538Z,101015.72
2022-11-28T13:51:33.622Z,101025.47
2022-11-28T13:54:21.640Z,101018.13
2022-11-28T13:57:05.040Z,101020.06
2022-11-28T13:59:32.437Z,101033.75
2022-11-28T14:02:01.085Z,101020.47
2022-11-28T14:04:28.585Z,101024.97
2022-11-28T14:07:35.911Z,101020.28
2022-11-28T14:10:28.638Z,101028.81
2022-11-28T14:12:55.112Z,101026.63
2022-11-28T14:15:26.416Z,101026.25
2022-11-28T14:18:48.335Z,101025.28
2022-11-28T14:21:45.080Z,101030.91
2022-11-28T14:24:33.398Z,101037.88
2022-11-28T14:27:02.533Z,101044.13
2022-11-28T14:29:35.564Z,101046.59
2022-11-28T14:34:49.046Z,101041.38
2022-11-28T14:37:21.519Z,101047.81
2022-11-28T14:39:49.280Z,101053.22
2022-11-28T14:42:36.731Z,101050.03
2022-11-28T14:45:11.144Z,101050.03
2022-11-28T14:47:42.888Z,101055.88
2022-11-28T14:50:09.416Z,101055.09
2022-11-28T14:52:39.554Z,101062.22
2022-11-28T14:55:27.223Z,101061.06
2022-11-28T14:57:53.590Z,101070.19
2022-11-28T15:00:25.848Z,101059.84
2022-11-28T15:03:10.873Z,101066.25
2022-11-28T15:05:51.856Z,101063.88
2022-11-28T15:08:37.191Z,101061.72
2022-11-28T15:11:58.503Z,101057.34
2022-11-28T15:14:29.339Z,101065.09
2022-11-28T15:17:01.580Z,101068.16
2022-11-28T15:19:39.701Z,101066.16
2022-11-28T15:22:06.271Z,101068.47
2022-11-28T15:24:34.750Z,101069.16
2022-11-28T15:27:25.610Z,101073.81
2022-11-28T15:30:00.024Z,101077.63
2022-11-28T15:32:28.291Z,101074.41
2022-11-28T15:35:05.369Z,101078.00
2022-11-28T15:37:34.895Z,101078.13
2022-11-28T15:40:06.190Z,101083.66
2022-11-28T15:42:34.541Z,101075.16
2022-11-28T15:45:35.384Z,101077.97
2022-11-28T15:48:01.972Z,101074.28
2022-11-28T15:50:29.945Z,101077.16
2022-11-28T15:53:04.656Z,101074.16
2022-11-28T15:55:33.683Z,101074.25
2022-11-28T15:58:17.987Z,101075.50
2022-11-28T16:00:47.539Z,101076.31
2022-11-28T16:03:18.021Z,101081.41
2022-11-28T16:05:45.860Z,101080.75
2022-11-28T16:08:26.194Z,101076.13
2022-11-28T16:10:52.857Z,101060.06
2022-11-28T16:13:21.296Z,101066.88
2022-11-28T16:15:50.356Z,101071.56
2022-11-28T16:18:17.263Z,101077.94
2022-11-28T16:20:43.767Z,101081.47
2022-11-28T16:23:18.529Z,101083.66
2022-11-28T16:25:45.016Z,101075.47
2022-11-28T16:28:37.416Z,101080.72
2022-11-28T16:31:11.815Z,101084.97
2022-11-28T16:33:43.473Z,101096.78
2022-11-28T16:36:10.919Z,101091.22
2022-11-28T16:38:38.037Z,101093.47
2022-11-28T16:41:04.592Z,101091.31
2022-11-28T16:43:39.159Z,101098.16
2022-11-28T16:46:07.770Z,101098.63
2022-11-28T16:48:38.755Z,101105.09
2022-11-28T16:51:14.963Z,101101.22
2022-11-28T16:53:55.195Z,101105.06
2022-11-28T16:56:32.085Z,101108.63
2022-11-28T16:59:07.595Z,101096.22
2022-11-28T17:01:35.532Z,101101.34
2022-11-28T17:04:03.979Z,101097.50
2022-11-28T17:06:34.824Z,101102.06
2022-11-28T17:09:02.191Z,101112.88
2022-11-28T17:11:32.713Z,101105.25
2022-11-28T17:14:02.289Z,101100.44
2022-11-28T17:16:33.396Z,101105.72
2022-11-28T17:19:00.197Z,101105.19
2022-11-28T17:21:48.794Z,101107.75
2022-11-28T17:24:21.451Z,101110.03
2022-11-28T17:26:48.823Z,101109.31
2022-11-28T17:29:15.991Z,101103.75
2022-11-28T17:31:43.766Z,101108.63
2022-11-28T17:34:17.049Z,101114.88
2022-11-28T17:36:43.748Z,101114.41
2022-11-28T17:39:11.428Z,101116.41
2022-11-28T17:41:38.743Z,101123.06
2022-11-28T17:44:05.841Z,101117.47
2022-11-28T17:46:32.545Z,101117.06
2022-11-28T17:48:59.390Z,101126.97
2022-11-28T17:51:26.066Z,101112.84
2022-11-28T17:53:52.818Z,101123.47
2022-11-28T17:56:19.251Z,101113.75
2022-11-28T17:58:46.096Z,101122.34
2022-11-28T18:01:15.964Z,101132.81
2022-11-28T18:03:42.499Z,101123.75
2022-11-28T18:06:16.326Z,101131.31
2022-11-28T18:08:43.542Z,101134.09
2022-11-28T18:11:11.121Z,101126.16
2022-11-28T18:13:37.549Z,101124.75
2022-11-28T18:16:04.106Z,101120.19
2022-11-28T18:18:32.075Z,101123.91
2022-11-28T18:20:58.696Z,101129.09
2022-11-28T18:23:25.166Z,101131.97
2022-11-28T18:25:51.834Z,101125.59
2022-11-28T18:28:20.285Z,101135.50
2022-11-28T18:30:47.485Z,101140.47
2022-11-28T18:33:14.751Z,101144.31
2022-11-28T18:35:41.541Z,101139.75
2022-11-28T18:38:08.804Z,101136.69
2022-11-28T18:40:36.327Z,101125.28
2022-11-28T18:43:03.409Z,101136.00
2022-11-28T18:45:30.320Z,101142.66
2022-11-28T18:48:00.185Z,101145.69
2022-11-28T18:50:27.108Z,101151.84
2022-11-28T18:52:54.340Z,101159.25
2022-11-28T18:55:20.900Z,101154.91
2022-11-28T18:57:47.389Z,101153.09
2022-11-28T19:00:14.397Z,101153.47
2022-11-28T19:02:40.878Z,101153.16
2022-11-28T19:05:07.509Z,101158.06
2022-11-28T19:07:33.998Z,101157.72
2022-11-28T19:10:00.410Z,101157.81
2022-11-28T19:12:27.748Z,101158.09
2022-11-28T19:15:00.303Z,101154.91
2022-11-28T19:17:28.434Z,101163.47
2022-11-28T19:19:54.873Z,101158.50
2022-11-28T19:22:22.770Z,101161.72
2022-11-28T19:24:49.160Z,101170.75
2022-11-28T19:27:15.617Z,101159.34
2022-11-28T19:29:42.358Z,101158.00
2022-11-28T19:32:09.129Z,101160.22
2022-11-28T19:34:35.591Z,101160.22
2022-11-28T19:37:02.022Z,101152.50
2022-11-28T19:39:28.451Z,101169.19
2022-11-28T19:41:55.426Z,101172.69
2022-11-28T19:44:24.126Z,101165.72
2022-11-28T19:46:50.791Z,101167.97
2022-11-28T19:49:22.280Z,101168.88
2022-11-28T19:51:49.560Z,101168.94
2022-11-28T19:54:16.953Z,101169.69
2022-11-28T19:56:43.497Z,101166.78
2022-11-28T19:59:10.749Z,101164.19
2022-11-28T20:01:38.122Z,101165.66
2022-11-28T20:04:04.840Z,101171.81
2022-11-28T20:06:32.410Z,101178.00
2022-11-28T20:09:02.303Z,101174.88
2022-11-28T20:11:33.797Z,101183.34
2022-11-28T20:14:06.677Z,101182.66
2022-11-28T20:16:35.314Z,101190.13
2022-11-28T20:19:02.248Z,101195.47
2022-11-28T20:21:29.905Z,101186.97
2022-11-28T20:24:03.150Z,101198.31
2022-11-28T20:26:31.275Z,101200.78
2022-11-28T20:28:57.731Z,101193.25
2022-11-28T20:31:33.856Z,101205.31
2022-11-28T20:34:00.958Z,101210.69
2022-11-28T20:36:29.259Z,101201.19
2022-11-28T20:38:56.465Z,101205.41
2022-11-28T20:41:24.332Z,101202.22
2022-11-28T20:43:51.117Z,101197.69
2022-11-28T20:46:23.186Z,101202.94
2022-11-28T20:48:50.627Z,101207.00
2022-11-28T20:51:19.934Z,101199.75
2022-11-28T20:53:46.636Z,101209.91
2022-11-28T20:56:24.418Z,101207.25
2022-11-28T20:58:51.404Z,101212.16
2022-11-28T21:01:29.661Z,101219.78
2022-11-28T21:03:57.281Z,101222.81
2022-11-28T21:06:23.724Z,101216.34
2022-11-28T21:08:50.169Z,101216.13
2022-11-28T21:11:43.326Z,101219.66
2022-11-28T21:14:06.145Z,101215.84
2022-11-28T21:16:33.206Z,101215.06
2022-11-28T21:19:03.939Z,101222.69
2022-11-28T21:21:32.287Z,101221.34
2022-11-28T21:24:04.450Z,101220.63
2022-11-28T21:26:35.044Z,101222.72
2022-11-28T21:29:06.878Z,101228.88
2022-11-28T21:31:36.410Z,101229.94
2022-11-28T21:34:02.892Z,101226.28
2022-11-28T21:36:30.603Z,101223.59
2022-11-28T21:38:58.952Z,101233.44
2022-11-28T21:41:34.352Z,101222.91
2022-11-28T21:44:01.211Z,101225.28
2022-11-28T21:46:27.908Z,101230.47
2022-11-28T21:48:54.432Z,101236.56
2022-11-28T21:51:23.428Z,101238.91
2022-11-28T21:53:50.313Z,101232.25
2022-11-28T21:56:18.783Z,101234.75
2022-11-28T21:58:45.317Z,101241.13
2022-11-28T22:01:13.333Z,101233.88
2022-11-28T22:03:43.739Z,101244.56
2022-11-28T22:06:36.491Z,101236.53
2022-11-28T22:09:09.042Z,101245.69
2022-11-28T22:11:36.740Z,101241.84
2022-11-28T22:14:03.176Z,101241.13
2022-11-28T22:16:29.803Z,101242.69
2022-11-28T22:18:58.799Z,101239.31
2022-11-28T22:24:12.141Z,101239.63
2022-11-28T22:26:38.582Z,101246.72
2022-11-28T22:29:05.035Z,101246.63
2022-11-28T22:31:31.920Z,101246.78
2022-11-28T22:33:58.469Z,101243.47
2022-11-28T22:36:25.041Z,101249.47
2022-11-28T22:38:55.788Z,101242.16
2022-11-28T22:41:28.271Z,101249.47
2022-11-28T22:43:57.038Z,101248.72
2022-11-28T22:46:23.719Z,101240.31
2022-11-28T22:48:51.776Z,101247.88
2022-11-28T22:51:24.791Z,101244.25
2022-11-28T22:53:55.671Z,101252.69
2022-11-28T22:56:22.542Z,101248.19
2022-11-28T22:58:49.894Z,101249.69
2022-11-28T23:01:22.275Z,101245.91
2022-11-28T23:03:48.806Z,101244.78
2022-11-28T23:06:17.901Z,101242.84
2022-11-28T23:08:44.837Z,101238.28
2022-11-28T23:11:17.602Z,101247.56
2022-11-28T23:13:44.817Z,101244.19
2022-11-28T23:16:19.147Z,101240.06
2022-11-28T23:18:47.021Z,101246.25
2022-11-28T23:21:14.454Z,101255.75
2022-11-28T23:23:41.175Z,101253.06
2022-11-28T23:26:11.119Z,101252.19
2022-11-28T23:28:37.974Z,101242.97
2022-11-28T23:31:16.409Z,101247.84
2022-11-28T23:33:43.352Z,101245.16
2022-11-28T23:36:18.726Z,101247.41
2022-11-28T23:38:46.900Z,101246.94
2022-11-28T23:41:13.920Z,101244.19
2022-11-28T23:43:40.519Z,101243.19
2022-11-28T23:46:08.104Z,101242.41
2022-11-28T23:48:34.742Z,101243.53
2022-11-28T23:51:01.212Z,101248.09
2022-11-28T23:53:27.651Z,101248.41
2022-11-28T23:55:54.067Z,101246.97
2022-11-28T23:58:20.722Z,101256.28
